Time;durP1;ratioP1;P1;durP2;ratioP2;P2;SDS_P1;SDS_P2;PMS_P1;PMS_P2;Temp;Humidity;BMP_temperature;BMP_pressure;BME280_temperature;BME280_humidity;BME280_pressure;Samples;Min_cycle;Max_cycle;Signal;HPM_P1;HPM_P2
2022/08/04 00:01:21;;;;;;;1.13;1.10;;;18.50;99.90;;;;;;5116083;27;20448;-85
2022/08/04 00:03:55;;;;;;;0.87;0.87;;;18.50;99.90;;;;;;5111680;27;20501;-85
2022/08/04 00:06:34;;;;;;;3.73;0.90;;;18.50;99.90;;;;;;5115354;27;20533;-85
2022/08/04 00:09:07;;;;;;;1.50;1.40;;;18.50;99.90;;;;;;5113853;27;20510;-84
2022/08/04 00:11:35;;;;;;;1.47;0.87;;;18.50;99.90;;;;;;5115219;27;20511;-84
2022/08/04 00:14:09;;;;;;;0.83;0.80;;;18.40;99.90;;;;;;5113524;27;20975;-85
2022/08/04 00:16:37;;;;;;;1.60;1.47;;;18.40;99.90;;;;;;5114372;27;20459;-84
2022/08/04 00:19:10;;;;;;;1.10;1.00;;;18.40;99.90;;;;;;5111691;27;20504;-84
2022/08/04 00:21:43;;;;;;;3.20;1.20;;;18.30;99.90;;;;;;5115519;27;20447;-84
2022/08/04 00:24:12;;;;;;;1.73;1.17;;;18.30;99.90;;;;;;5114113;28;20549;-84
2022/08/04 00:26:41;;;;;;;1.30;1.20;;;18.30;99.90;;;;;;5112364;28;20542;-84
2022/08/04 00:29:10;;;;;;;1.40;1.30;;;18.30;99.90;;;;;;5112388;28;20542;-84
2022/08/04 00:31:37;;;;;;;1.00;1.00;;;18.30;99.90;;;;;;5114315;28;20461;-84
2022/08/04 00:34:04;;;;;;;1.53;1.43;;;18.30;99.90;;;;;;5114834;28;20539;-84
2022/08/04 00:36:32;;;;;;;1.13;0.90;;;18.30;99.90;;;;;;5114755;28;21127;-84
2022/08/04 00:39:00;;;;;;;0.80;0.80;;;18.20;99.90;;;;;;5112268;28;20515;-84
2022/08/04 00:41:38;;;;;;;1.20;1.10;;;18.20;99.90;;;;;;5106206;28;20543;-84
2022/08/04 00:44:19;;;;;;;1.07;0.97;;;18.20;99.90;;;;;;5111344;28;20440;-84
2022/08/04 00:47:00;;;;;;;1.30;0.90;;;18.20;99.90;;;;;;5112116;28;20540;-84
2022/08/04 00:49:54;;;;;;;1.20;1.10;;;18.20;99.90;;;;;;5114654;28;20439;-84
2022/08/04 00:52:37;;;;;;;0.83;0.83;;;18.20;99.90;;;;;;5114720;28;20449;-85
2022/08/04 00:55:15;;;;;;;0.80;0.80;;;18.10;99.90;;;;;;5112282;28;20451;-84
2022/08/04 00:58:06;;;;;;;1.10;1.00;;;18.10;99.90;;;;;;5115558;28;20987;-84
2022/08/04 01:00:47;;;;;;;1.73;1.17;;;18.10;99.90;;;;;;5111576;28;20518;-84
2022/08/04 01:03:22;;;;;;;1.23;1.07;;;18.10;99.90;;;;;;5115614;27;20459;-84
2022/08/04 01:06:01;;;;;;;0.80;0.80;;;18.10;99.90;;;;;;5115070;27;20515;-84
2022/08/04 01:08:42;;;;;;;1.20;1.10;;;18.10;99.90;;;;;;5118492;27;20552;-84
2022/08/04 01:11:19;;;;;;;2.13;2.03;;;18.20;99.90;;;;;;5116341;27;20486;-84
2022/08/04 01:14:13;;;;;;;1.10;1.00;;;18.20;99.90;;;;;;5116029;27;20537;-84
2022/08/04 01:16:49;;;;;;;1.03;0.80;;;18.20;99.90;;;;;;5113656;27;20999;-84
2022/08/04 01:19:41;;;;;;;1.33;1.23;;;18.10;99.90;;;;;;5110165;27;20534;-84
2022/08/04 01:22:43;;;;;;;1.00;0.83;;;18.10;99.90;;;;;;5110539;27;20504;-84
2022/08/04 01:25:32;;;;;;;0.87;0.87;;;18.20;99.90;;;;;;5113271;27;20485;-84
2022/08/04 01:28:24;;;;;;;1.10;1.00;;;18.10;99.90;;;;;;5106491;28;21171;-84
2022/08/04 01:30:57;;;;;;;0.80;0.80;;;18.10;99.90;;;;;;5113633;27;20464;-84
2022/08/04 01:33:29;;;;;;;1.30;1.20;;;18.00;99.90;;;;;;5119144;27;20456;-84
2022/08/04 01:36:00;;;;;;;1.23;1.07;;;17.90;99.90;;;;;;5113599;27;20476;-84
2022/08/04 01:38:30;;;;;;;0.93;0.90;;;17.80;99.90;;;;;;5121290;27;20494;-84
2022/08/04 01:41:02;;;;;;;1.77;1.20;;;17.80;99.90;;;;;;5126051;27;20517;-84
2022/08/04 01:43:32;;;;;;;1.00;0.93;;;17.70;99.90;;;;;;5116671;27;20475;-84
2022/08/04 01:46:02;;;;;;;3.20;1.73;;;17.60;99.90;;;;;;5117513;27;20866;-84
2022/08/04 01:48:30;;;;;;;8.40;2.17;;;17.50;99.90;;;;;;5116360;27;20473;-84
2022/08/04 01:50:59;;;;;;;1.80;1.70;;;17.50;99.90;;;;;;5117178;27;20551;-84
2022/08/04 01:53:31;;;;;;;2.00;1.27;;;17.40;99.90;;;;;;5117059;27;20448;-84
2022/08/04 01:55:59;;;;;;;1.70;1.03;;;17.40;99.90;;;;;;5114661;27;20877;-84
2022/08/04 01:58:29;;;;;;;1.53;1.43;;;17.30;99.90;;;;;;5117397;27;21297;-83
2022/08/04 02:01:00;;;;;;;1.33;1.20;;;17.20;99.90;;;;;;5105111;28;20446;-83
2022/08/04 02:03:29;;;;;;;1.20;1.10;;;17.20;99.90;;;;;;5117472;27;20524;-84
2022/08/04 02:06:09;;;;;;;1.90;1.73;;;17.20;99.90;;;;;;5115113;27;20468;-83
2022/08/04 02:08:51;;;;;;;1.83;1.53;;;17.20;99.90;;;;;;5116385;27;20538;-84
2022/08/04 02:11:21;;;;;;;1.23;1.10;;;17.10;99.90;;;;;;5117957;27;20509;-83
2022/08/04 02:13:54;;;;;;;1.30;1.30;;;17.10;99.90;;;;;;5114081;27;20455;-84
2022/08/04 02:16:30;;;;;;;0.97;0.90;;;17.00;99.90;;;;;;5114985;27;20464;-84
2022/08/04 02:19:04;;;;;;;1.10;1.00;;;17.00;99.90;;;;;;5112104;27;20545;-84
2022/08/04 02:21:34;;;;;;;1.87;1.40;;;17.00;99.90;;;;;;5107470;28;20948;-84
2022/08/04 02:24:05;;;;;;;2.10;2.00;;;17.10;99.90;;;;;;5111853;27;20964;-84
2022/08/04 02:26:33;;;;;;;2.37;1.97;;;17.30;99.90;;;;;;5114778;27;20454;-83
2022/08/04 02:29:08;;;;;;;1.30;1.20;;;17.30;99.90;;;;;;5116201;27;20465;-83
2022/08/04 02:31:44;;;;;;;1.47;1.33;;;17.20;99.90;;;;;;5106325;28;20437;-83
2022/08/04 02:34:20;;;;;;;1.40;1.30;;;17.20;99.90;;;;;;5107629;27;20546;-84
2022/08/04 02:36:50;;;;;;;1.63;1.43;;;17.30;99.90;;;;;;5116500;27;20550;-84
2022/08/04 02:39:20;;;;;;;1.37;1.27;;;17.20;99.90;;;;;;5112733;27;20938;-83
2022/08/04 02:41:48;;;;;;;2.50;1.97;;;17.30;99.90;;;;;;5115077;27;20893;-83
2022/08/04 02:44:21;;;;;;;1.63;1.43;;;17.20;99.90;;;;;;5115593;27;20928;-84
2022/08/04 02:46:51;;;;;;;1.30;1.13;;;17.20;99.90;;;;;;5106690;27;20472;-84
2022/08/04 02:49:22;;;;;;;1.43;1.33;;;17.10;99.90;;;;;;5116097;27;20924;-83
2022/08/04 02:51:51;;;;;;;2.37;2.17;;;17.10;99.90;;;;;;5113824;27;20464;-84
2022/08/04 02:54:23;;;;;;;1.40;1.23;;;17.00;99.90;;;;;;5115442;27;20547;-83
2022/08/04 02:56:52;;;;;;;1.87;1.20;;;17.00;99.90;;;;;;5111740;27;21027;-84
2022/08/04 02:59:27;;;;;;;0.90;0.80;;;16.90;99.90;;;;;;5107111;27;20859;-83
2022/08/04 03:01:55;;;;;;;1.40;1.30;;;16.90;99.90;;;;;;5111178;27;20520;-83
2022/08/04 03:04:35;;;;;;;1.13;1.13;;;16.70;99.90;;;;;;5114438;27;20516;-83
2022/08/04 03:07:39;;;;;;;1.80;1.43;;;16.70;99.90;;;;;;5115576;27;20905;-84
2022/08/04 03:10:30;;;;;;;1.50;1.40;;;16.70;99.90;;;;;;5113858;27;20449;-84
2022/08/04 03:13:45;;;;;;;1.60;1.50;;;16.70;99.90;;;;;;5113132;27;20525;-83
2022/08/04 03:16:47;;;;;;;1.43;1.33;;;16.70;99.90;;;;;;5112236;27;20467;-84
2022/08/04 03:19:50;;;;;;;1.33;1.17;;;16.70;99.90;;;;;;5105858;28;20445;-84
2022/08/04 03:22:52;;;;;;;2.90;1.20;;;16.80;99.90;;;;;;5089271;27;20465;-84
2022/08/04 03:25:45;;;;;;;1.50;1.40;;;16.70;99.90;;;;;;5113163;27;20570;-84
2022/08/04 03:28:35;;;;;;;2.33;2.23;;;16.80;99.90;;;;;;5104320;27;20538;-83
2022/08/04 03:31:47;;;;;;;1.80;1.60;;;16.70;99.90;;;;;;5100712;27;20523;-84
2022/08/04 03:34:43;;;;;;;1.80;1.67;;;16.80;99.90;;;;;;5091842;27;20833;-84
2022/08/04 03:37:38;;;;;;;1.40;1.00;;;16.70;99.90;;;;;;5109235;27;20599;-84
2022/08/04 03:40:34;;;;;;;1.93;1.77;;;16.70;99.90;;;;;;5111967;27;20534;-84
2022/08/04 03:43:25;;;;;;;1.37;1.27;;;16.60;99.90;;;;;;5104732;27;21167;-84
2022/08/04 03:46:40;;;;;;;1.67;1.57;;;16.60;99.90;;;;;;5111239;27;20465;-84
2022/08/04 03:49:43;;;;;;;1.30;1.20;;;16.60;99.90;;;;;;5036233;28;20489;-83
2022/08/04 03:55:42;;;;;;;3.23;2.50;;;16.60;99.90;;;;;;5110725;27;20619;-83
2022/08/04 03:58:34;;;;;;;2.80;1.47;;;16.70;99.90;;;;;;5111680;27;20437;-84
2022/08/04 04:01:12;;;;;;;2.13;2.03;;;16.60;99.90;;;;;;5115060;27;20835;-83
2022/08/04 04:04:03;;;;;;;1.83;1.50;;;16.70;99.90;;;;;;5108407;27;20450;-83
2022/08/04 04:06:50;;;;;;;2.00;1.60;;;16.70;99.90;;;;;;5112306;27;20855;-83
2022/08/04 04:10:03;;;;;;;1.97;1.87;;;16.80;99.90;;;;;;5108760;27;20481;-84
2022/08/04 04:12:49;;;;;;;1.30;1.20;;;16.70;99.90;;;;;;5108820;27;20808;-84
2022/08/04 04:15:36;;;;;;;1.50;1.40;;;16.70;99.90;;;;;;5108812;27;20462;-84
2022/08/04 04:18:21;;;;;;;1.50;1.40;;;16.80;99.90;;;;;;5110132;27;20441;-84
2022/08/04 04:21:03;;;;;;;1.00;0.97;;;16.80;99.90;;;;;;5109687;27;20509;-84
2022/08/04 04:23:46;;;;;;;4.23;2.00;;;16.80;99.90;;;;;;5111724;28;20970;-83
2022/08/04 04:26:40;;;;;;;1.57;1.47;;;16.80;99.90;;;;;;5105086;28;20489;-84
2022/08/04 04:29:29;;;;;;;2.53;1.47;;;16.90;99.90;;;;;;5108392;28;20482;-83
2022/08/04 04:32:18;;;;;;;2.23;1.60;;;17.00;99.90;;;;;;5113024;28;20470;-83
2022/08/04 04:34:53;;;;;;;1.20;1.10;;;17.00;99.90;;;;;;5110025;28;20936;-84
2022/08/04 04:37:40;;;;;;;0.93;0.93;;;17.10;99.90;;;;;;5110720;27;20676;-83
2022/08/04 04:40:20;;;;;;;1.57;1.47;;;17.20;99.90;;;;;;5114750;27;20495;-85
2022/08/04 04:43:19;;;;;;;1.70;1.60;;;17.20;99.90;;;;;;5116263;27;20952;-85
2022/08/04 04:45:55;;;;;;;1.70;1.17;;;17.30;99.90;;;;;;5098830;27;20454;-85
2022/08/04 04:48:42;;;;;;;1.67;1.57;;;17.30;99.90;;;;;;5118268;27;20479;-85
2022/08/04 04:51:14;;;;;;;1.80;1.37;;;17.30;99.90;;;;;;5106324;28;20448;-84
2022/08/04 04:53:51;;;;;;;1.27;1.27;;;17.50;99.90;;;;;;5117096;27;20574;-85
2022/08/04 04:56:27;;;;;;;1.97;1.67;;;17.50;99.90;;;;;;5117771;27;20441;-85
2022/08/04 04:58:56;;;;;;;1.10;1.00;;;17.70;99.90;;;;;;5113528;27;20858;-85
2022/08/04 05:01:48;;;;;;;3.33;1.30;;;17.80;99.90;;;;;;5120043;27;20452;-85
2022/08/04 05:05:00;;;;;;;1.57;1.47;;;17.90;99.90;;;;;;5115281;27;20446;-85
2022/08/04 05:08:09;;;;;;;1.50;1.30;;;18.20;99.90;;;;;;5074740;27;20533;-85
2022/08/04 05:11:00;;;;;;;1.73;1.63;;;18.40;99.90;;;;;;5108137;28;20881;-85
2022/08/04 05:13:37;;;;;;;1.07;1.07;;;18.60;99.90;;;;;;5108357;28;20472;-85
2022/08/04 05:16:10;;;;;;;1.30;1.20;;;18.70;99.90;;;;;;5107230;27;20905;-85
2022/08/04 05:18:42;;;;;;;3.30;1.50;;;18.80;99.90;;;;;;5109684;27;20864;-85
2022/08/04 05:21:22;;;;;;;2.80;1.57;;;18.90;99.90;;;;;;5118937;27;21008;-85
2022/08/04 05:23:54;;;;;;;1.60;1.50;;;19.00;99.90;;;;;;5122831;27;20944;-85
2022/08/04 05:26:28;;;;;;;0.90;0.90;;;19.00;99.90;;;;;;5113108;27;20480;-85
2022/08/04 05:28:59;;;;;;;1.10;1.00;;;19.20;99.90;;;;;;5109505;27;20524;-84
2022/08/04 05:31:32;;;;;;;1.50;1.40;;;19.20;99.90;;;;;;5111201;27;20882;-84
2022/08/04 05:34:05;;;;;;;1.50;1.40;;;19.30;99.90;;;;;;5121170;27;20454;-85
2022/08/04 05:36:38;;;;;;;1.20;1.10;;;19.40;99.90;;;;;;5107791;28;20471;-85
2022/08/04 05:39:07;;;;;;;1.10;0.93;;;19.50;99.90;;;;;;5106870;27;20466;-85
2022/08/04 05:41:35;;;;;;;1.50;1.40;;;19.60;99.90;;;;;;5117206;27;20518;-85
2022/08/04 05:44:03;;;;;;;1.77;1.53;;;19.90;99.90;;;;;;5123881;27;20486;-83
2022/08/04 05:46:31;;;;;;;1.33;1.27;;;20.10;99.90;;;;;;5113429;27;20861;-84
2022/08/04 05:49:00;;;;;;;1.23;1.13;;;20.20;99.90;;;;;;5106677;27;20495;-85
2022/08/04 05:51:29;;;;;;;1.63;1.13;;;20.30;99.90;;;;;;5108431;27;20461;-84
2022/08/04 05:53:57;;;;;;;4.93;1.20;;;20.40;99.90;;;;;;5107647;27;20462;-84
2022/08/04 05:56:25;;;;;;;1.87;1.20;;;20.50;99.90;;;;;;5111154;27;20442;-84
2022/08/04 05:58:55;;;;;;;1.47;1.37;;;20.50;99.90;;;;;;5110978;27;20458;-84
2022/08/04 06:01:23;;;;;;;3.20;2.20;;;20.60;99.90;;;;;;5107486;27;20521;-84
2022/08/04 06:03:50;;;;;;;1.80;1.40;;;20.80;99.90;;;;;;5107847;27;20502;-84
2022/08/04 06:06:21;;;;;;;1.47;1.37;;;20.90;99.90;;;;;;5116845;27;20463;-84
2022/08/04 06:08:48;;;;;;;2.37;1.60;;;21.00;99.90;;;;;;5112422;27;20541;-84
2022/08/04 06:11:16;;;;;;;1.93;1.80;;;21.00;99.90;;;;;;5113510;27;20776;-84
2022/08/04 06:13:48;;;;;;;1.73;1.63;;;21.10;99.90;;;;;;5117835;27;20468;-84
2022/08/04 06:16:16;;;;;;;2.07;1.60;;;21.30;99.90;;;;;;5111710;27;21000;-84
2022/08/04 06:18:45;;;;;;;2.90;1.87;;;21.40;99.90;;;;;;5111344;27;20465;-84
2022/08/04 06:21:14;;;;;;;3.20;1.53;;;21.50;99.90;;;;;;5115176;27;20847;-84
2022/08/04 06:23:44;;;;;;;2.33;1.63;;;21.20;99.90;;;;;;5111809;27;21260;-84
2022/08/04 06:26:18;;;;;;;1.67;1.57;;;21.50;99.90;;;;;;5112573;27;20538;-84
2022/08/04 06:28:47;;;;;;;2.03;1.30;;;21.60;99.90;;;;;;5115714;27;20812;-83
2022/08/04 06:31:20;;;;;;;8.87;2.10;;;21.70;99.90;;;;;;5116074;27;20457;-83
2022/08/04 06:33:51;;;;;;;1.37;1.20;;;21.80;99.90;;;;;;5111248;27;20465;-84
2022/08/04 06:36:19;;;;;;;1.80;1.63;;;22.20;99.90;;;;;;5113946;27;20450;-83
2022/08/04 06:38:48;;;;;;;1.63;1.37;;;22.30;99.90;;;;;;5114619;27;20530;-84
2022/08/04 06:41:15;;;;;;;3.80;1.53;;;22.60;99.90;;;;;;5110819;27;20549;-84
2022/08/04 06:43:43;;;;;;;1.93;1.80;;;22.60;99.90;;;;;;5115824;27;20486;-84
2022/08/04 06:46:10;;;;;;;1.60;1.50;;;22.80;99.90;;;;;;5122030;27;20469;-83
2022/08/04 06:48:38;;;;;;;1.73;1.63;;;22.90;99.90;;;;;;5116885;27;20481;-84
2022/08/04 06:51:07;;;;;;;1.67;1.40;;;23.00;99.90;;;;;;5125046;27;20456;-84
2022/08/04 06:53:34;;;;;;;1.77;1.47;;;23.30;99.90;;;;;;5119742;27;20914;-83
2022/08/04 06:56:04;;;;;;;5.20;1.60;;;23.30;99.90;;;;;;5107365;27;20534;-83
2022/08/04 06:58:33;;;;;;;3.27;2.30;;;23.30;98.90;;;;;;5118720;27;20907;-84
2022/08/04 07:01:01;;;;;;;2.83;2.60;;;23.40;98.70;;;;;;5111464;27;20464;-84
2022/08/04 07:03:29;;;;;;;1.63;1.47;;;23.40;99.90;;;;;;5113230;27;20478;-84
2022/08/04 07:05:57;;;;;;;2.60;2.00;;;23.40;97.90;;;;;;5115190;27;20460;-84
2022/08/04 07:08:24;;;;;;;1.80;1.70;;;23.70;98.10;;;;;;5111521;27;20489;-83
2022/08/04 07:10:53;;;;;;;2.30;1.50;;;23.80;97.10;;;;;;5114082;27;20503;-84
2022/08/04 07:13:23;;;;;;;2.50;1.30;;;23.70;96.50;;;;;;5113997;27;20437;-84
2022/08/04 07:15:50;;;;;;;1.70;1.60;;;23.70;95.70;;;;;;5119138;27;20537;-84
2022/08/04 07:18:17;;;;;;;1.40;1.30;;;23.80;96.60;;;;;;5108509;27;20461;-84
2022/08/04 07:20:45;;;;;;;1.73;1.63;;;24.10;96.30;;;;;;5116482;27;21192;-84
2022/08/04 07:23:18;;;;;;;1.30;1.00;;;24.20;94.30;;;;;;5112783;27;20511;-85
2022/08/04 07:25:51;;;;;;;1.30;1.20;;;24.10;95.00;;;;;;5122171;27;20765;-85
2022/08/04 07:28:18;;;;;;;1.53;1.43;;;24.40;94.40;;;;;;5109658;27;20548;-85
2022/08/04 07:30:53;;;;;;;1.90;1.80;;;24.50;93.90;;;;;;5108521;27;20518;-84
2022/08/04 07:33:21;;;;;;;1.30;1.20;;;24.70;93.50;;;;;;5111134;27;20461;-84
2022/08/04 07:35:51;;;;;;;1.43;1.33;;;24.70;93.60;;;;;;5108369;27;20466;-85
2022/08/04 07:38:21;;;;;;;1.73;1.63;;;24.80;92.80;;;;;;5105462;27;21083;-84
2022/08/04 07:40:48;;;;;;;1.30;1.20;;;25.00;94.00;;;;;;5109953;27;20469;-85
2022/08/04 07:43:17;;;;;;;1.33;1.23;;;24.80;95.30;;;;;;5108415;27;20511;-85
2022/08/04 07:45:45;;;;;;;1.13;0.87;;;24.80;93.90;;;;;;5108812;27;20909;-85
2022/08/04 07:48:14;;;;;;;1.37;1.20;;;25.10;92.70;;;;;;5108150;27;20453;-85
2022/08/04 07:50:44;;;;;;;2.00;1.27;;;25.00;91.90;;;;;;5111008;27;20998;-85
2022/08/04 07:53:13;;;;;;;1.40;1.30;;;25.00;91.70;;;;;;5103379;27;20470;-86
2022/08/04 07:55:40;;;;;;;1.27;1.17;;;25.20;91.50;;;;;;5110289;27;20458;-86
2022/08/04 07:58:07;;;;;;;1.40;1.20;;;25.30;91.30;;;;;;5110274;27;20884;-85
2022/08/04 08:00:34;;;;;;;2.50;2.10;;;25.40;91.30;;;;;;5111620;27;20458;-85
2022/08/04 08:03:04;;;;;;;5.13;1.60;;;25.40;93.40;;;;;;5105929;27;20457;-85
2022/08/04 08:05:32;;;;;;;1.00;1.00;;;25.50;91.00;;;;;;5107948;27;20457;-85
2022/08/04 08:08:00;;;;;;;4.50;1.50;;;25.50;92.10;;;;;;5111727;27;20526;-85
2022/08/04 08:10:27;;;;;;;1.37;1.27;;;25.80;92.10;;;;;;5114598;27;20539;-85
2022/08/04 08:12:54;;;;;;;1.27;1.27;;;25.90;91.90;;;;;;5111960;27;20468;-86
2022/08/04 08:15:22;;;;;;;0.90;0.90;;;26.00;91.30;;;;;;5111898;27;20538;-85
2022/08/04 08:17:49;;;;;;;1.60;1.07;;;25.90;92.30;;;;;;5110844;27;20877;-85
2022/08/04 08:20:18;;;;;;;1.03;1.03;;;25.90;91.70;;;;;;5111404;27;20457;-86
2022/08/04 08:22:45;;;;;;;5.37;1.60;;;26.00;92.10;;;;;;5106780;27;20453;-85
2022/08/04 08:25:12;;;;;;;1.20;1.00;;;26.20;90.90;;;;;;5108731;27;20530;-85
2022/08/04 08:27:39;;;;;;;1.33;1.23;;;26.40;91.50;;;;;;5104356;28;20598;-86
2022/08/04 08:30:08;;;;;;;1.40;1.30;;;26.50;89.50;;;;;;5104546;28;20490;-86
2022/08/04 08:32:35;;;;;;;5.83;1.60;;;26.60;89.50;;;;;;5104796;28;20462;-86
2022/08/04 08:35:02;;;;;;;1.57;1.47;;;26.80;88.90;;;;;;5106749;28;20963;-86
2022/08/04 08:37:37;;;;;;;1.70;1.60;;;27.00;91.30;;;;;;5106085;28;20510;-86
2022/08/04 08:40:30;;;;;;;1.40;1.17;;;26.70;88.40;;;;;;5105507;28;20456;-87
2022/08/04 08:43:19;;;;;;;1.07;0.97;;;26.50;90.40;;;;;;5113449;28;20552;-86
2022/08/04 08:46:24;;;;;;;1.60;1.50;;;26.50;88.90;;;;;;5105476;28;20993;-87
2022/08/04 08:49:07;;;;;;;1.47;1.33;;;26.70;86.50;;;;;;5073520;28;21161;-87
2022/08/04 08:51:48;;;;;;;2.70;1.60;;;26.70;85.80;;;;;;5107362;28;20460;-87
2022/08/04 08:54:50;;;;;;;1.13;1.03;;;27.00;89.70;;;;;;5106864;28;20461;-87
2022/08/04 08:57:57;;;;;;;1.67;1.57;;;27.00;88.00;;;;;;5105117;28;20543;-87
2022/08/04 09:00:33;;;;;;;1.93;1.43;;;27.30;87.30;;;;;;5063503;28;20454;-87
2022/08/04 09:03:36;;;;;;;1.37;1.17;;;27.40;84.40;;;;;;5111005;28;20457;-87
2022/08/04 09:06:46;;;;;;;1.60;1.50;;;27.20;82.50;;;;;;5069942;28;20457;-86
2022/08/04 09:09:37;;;;;;;1.57;1.30;;;27.10;89.20;;;;;;5033730;28;20480;-87
2022/08/04 09:12:12;;;;;;;2.73;1.33;;;27.40;89.30;;;;;;5105272;28;20514;-87
2022/08/04 09:14:50;;;;;;;1.07;0.90;;;27.90;88.60;;;;;;5115368;28;20540;-87
2022/08/04 09:17:22;;;;;;;1.67;1.03;;;27.70;83.60;;;;;;5102686;28;20470;-86
2022/08/04 09:19:56;;;;;;;1.77;1.67;;;27.60;82.00;;;;;;5107100;28;20504;-86
2022/08/04 09:22:29;;;;;;;1.90;1.80;;;27.70;86.20;;;;;;5104081;28;20453;-86
2022/08/04 09:25:03;;;;;;;1.10;0.97;;;28.00;83.80;;;;;;5112521;27;21151;-86
2022/08/04 09:27:43;;;;;;;3.07;1.33;;;28.20;80.30;;;;;;5110849;27;20461;-85
2022/08/04 09:30:14;;;;;;;1.43;1.33;;;28.30;81.50;;;;;;5109782;27;20980;-87
2022/08/04 09:32:48;;;;;;;1.57;1.47;;;28.20;80.20;;;;;;5111047;27;21011;-86
2022/08/04 09:35:24;;;;;;;1.63;1.53;;;28.30;84.90;;;;;;5113961;27;20456;-87
2022/08/04 09:38:02;;;;;;;1.93;1.77;;;28.00;84.60;;;;;;5115801;27;20448;-87
2022/08/04 09:40:34;;;;;;;0.90;0.90;;;28.10;85.90;;;;;;5110118;27;20553;-86
2022/08/04 09:43:15;;;;;;;1.80;1.00;;;28.20;80.60;;;;;;5127786;27;20437;-87
2022/08/04 09:45:50;;;;;;;0.90;0.90;;;28.10;81.60;;;;;;5114590;27;20527;-87
2022/08/04 09:48:27;;;;;;;1.37;1.27;;;28.20;78.60;;;;;;5108384;27;20540;-86
2022/08/04 09:50:59;;;;;;;1.53;1.43;;;28.30;79.40;;;;;;5110137;27;20485;-87
2022/08/04 09:53:37;;;;;;;1.33;1.23;;;28.60;81.00;;;;;;5106346;27;20877;-87
2022/08/04 09:56:10;;;;;;;2.20;1.10;;;28.70;84.20;;;;;;5112063;27;20495;-87
2022/08/04 09:58:50;;;;;;;5.80;1.40;;;28.70;79.50;;;;;;5114018;27;20450;-87
2022/08/04 10:01:20;;;;;;;1.10;1.00;;;28.90;81.00;;;;;;5113680;27;20461;-88
2022/08/04 10:04:03;;;;;;;0.97;0.97;;;29.00;79.00;;;;;;5114697;27;20563;-88
2022/08/04 10:06:48;;;;;;;1.93;1.20;;;29.00;77.60;;;;;;5114288;27;21153;-87
2022/08/04 10:09:32;;;;;;;1.03;0.90;;;29.40;79.80;;;;;;5118700;27;20488;-87
2022/08/04 10:12:27;;;;;;;2.60;0.90;;;29.70;76.20;;;;;;5128146;27;20451;-87
2022/08/04 10:15:04;;;;;;;1.13;1.00;;;29.60;75.40;;;;;;5137702;27;20566;-87
2022/08/04 10:18:05;;;;;;;2.33;1.37;;;29.70;80.40;;;;;;5126407;27;20476;-87
2022/08/04 10:20:48;;;;;;;0.87;0.87;;;29.80;74.10;;;;;;5103901;28;20512;-87
2022/08/04 10:23:26;;;;;;;1.00;1.00;;;29.50;74.80;;;;;;5124158;27;20852;-87
2022/08/04 10:26:06;;;;;;;1.17;1.07;;;29.70;75.80;;;;;;5111849;27;20496;-87
2022/08/04 10:28:41;;;;;;;1.13;1.07;;;29.90;76.30;;;;;;5111196;27;20462;-86
2022/08/04 10:31:13;;;;;;;0.70;0.70;;;29.70;72.90;;;;;;5107917;27;20485;-86
2022/08/04 10:33:48;;;;;;;1.00;1.00;;;29.70;71.40;;;;;;5104833;27;20462;-86
2022/08/04 10:36:21;;;;;;;0.90;0.90;;;29.60;73.50;;;;;;5108505;27;20545;-87
2022/08/04 10:38:56;;;;;;;1.20;1.20;;;30.00;76.00;;;;;;5110034;27;20909;-85
2022/08/04 10:41:30;;;;;;;1.50;1.30;;;29.90;78.60;;;;;;5104612;27;20456;-86
2022/08/04 10:44:13;;;;;;;1.00;1.00;;;30.00;72.80;;;;;;5111075;27;20560;-86
2022/08/04 10:46:47;;;;;;;1.10;1.00;;;30.00;74.90;;;;;;5118597;27;20453;-87
2022/08/04 10:49:21;;;;;;;1.20;1.10;;;30.00;72.80;;;;;;5107894;27;20457;-87
2022/08/04 10:51:53;;;;;;;0.87;0.87;;;30.10;74.00;;;;;;5108724;27;20550;-87
2022/08/04 10:54:26;;;;;;;0.80;0.80;;;30.30;72.50;;;;;;5119477;27;20541;-87
2022/08/04 10:56:59;;;;;;;1.07;1.07;;;30.10;68.10;;;;;;5112084;27;20536;-87
2022/08/04 10:59:33;;;;;;;1.17;1.07;;;30.20;71.80;;;;;;5105731;27;21080;-87
2022/08/04 11:02:10;;;;;;;0.90;0.90;;;30.20;73.90;;;;;;5109806;27;20450;-87
2022/08/04 11:04:42;;;;;;;1.57;1.47;;;30.20;72.50;;;;;;5117785;27;20513;-86
2022/08/04 11:07:13;;;;;;;1.33;1.27;;;30.40;73.80;;;;;;5103300;27;20948;-86
2022/08/04 11:09:42;;;;;;;1.57;1.20;;;30.60;70.80;;;;;;5111789;27;20493;-87
2022/08/04 11:12:15;;;;;;;1.40;1.30;;;30.30;69.90;;;;;;5106348;27;20466;-87
2022/08/04 11:14:46;;;;;;;1.03;1.03;;;30.40;71.20;;;;;;5117319;27;20453;-87
2022/08/04 11:17:20;;;;;;;1.73;1.63;;;30.40;74.10;;;;;;5114833;27;20468;-87
2022/08/04 11:19:52;;;;;;;1.23;1.20;;;30.50;68.30;;;;;;5114434;27;20466;-87
2022/08/04 11:22:25;;;;;;;1.13;1.03;;;30.60;70.30;;;;;;5110295;27;20470;-87
2022/08/04 11:24:57;;;;;;;1.10;1.10;;;30.60;68.60;;;;;;5104790;27;20837;-87
2022/08/04 11:27:29;;;;;;;1.40;1.30;;;30.70;70.70;;;;;;5109755;27;20991;-87
2022/08/04 11:30:04;;;;;;;1.00;0.90;;;30.80;68.30;;;;;;5112467;27;20564;-88
2022/08/04 11:32:37;;;;;;;1.60;1.50;;;30.90;69.90;;;;;;5104292;27;20996;-88
2022/08/04 11:35:12;;;;;;;0.80;0.80;;;30.80;75.90;;;;;;5111392;27;20468;-88
2022/08/04 11:37:49;;;;;;;1.37;1.27;;;31.10;72.40;;;;;;5116307;27;21100;-88
2022/08/04 11:40:23;;;;;;;1.00;1.00;;;31.30;70.40;;;;;;5109579;27;20468;-88
2022/08/04 11:42:56;;;;;;;1.03;1.00;;;31.40;68.30;;;;;;5111861;27;20913;-88
2022/08/04 11:45:30;;;;;;;0.93;0.93;;;31.30;67.70;;;;;;5105157;27;20998;-88
2022/08/04 11:48:00;;;;;;;1.00;1.00;;;31.40;67.50;;;;;;5108685;27;20450;-88
2022/08/04 11:50:32;;;;;;;1.00;0.80;;;31.30;65.00;;;;;;5113085;27;20558;-88
2022/08/04 11:53:02;;;;;;;1.50;1.40;;;31.10;62.40;;;;;;5115522;27;20482;-88
2022/08/04 11:55:31;;;;;;;0.90;0.90;;;31.10;65.00;;;;;;5111019;27;20474;-88
2022/08/04 11:57:58;;;;;;;0.83;0.83;;;31.10;67.20;;;;;;5119983;27;20461;-88
2022/08/04 12:00:29;;;;;;;1.03;1.00;;;31.30;70.80;;;;;;5110167;27;20976;-88
2022/08/04 12:03:19;;;;;;;1.00;0.90;;;31.60;67.70;;;;;;5110776;27;20461;-88
2022/08/04 12:05:53;;;;;;;4.23;1.20;;;31.80;62.20;;;;;;5105676;27;20794;-88
2022/08/04 12:08:40;;;;;;;2.30;1.17;;;32.00;67.80;;;;;;5112283;27;20662;-88
2022/08/04 12:11:21;;;;;;;1.40;1.40;;;31.70;63.80;;;;;;5108558;27;20773;-88
2022/08/04 12:13:54;;;;;;;1.10;1.10;;;31.40;65.20;;;;;;5104710;28;20545;-88
2022/08/04 12:16:27;;;;;;;1.33;1.23;;;31.10;61.50;;;;;;5112300;27;20814;-88
2022/08/04 12:18:59;;;;;;;1.20;1.10;;;31.40;65.90;;;;;;5112576;27;20961;-89
2022/08/04 12:21:33;;;;;;;1.17;1.10;;;31.80;63.20;;;;;;5115370;27;20454;-88
2022/08/04 12:24:08;;;;;;;1.13;1.03;;;31.70;61.00;;;;;;5117109;27;20461;-88
2022/08/04 12:26:41;;;;;;;1.43;1.00;;;31.80;61.70;;;;;;5067542;28;20534;-89
2022/08/04 12:29:12;;;;;;;1.00;1.00;;;31.80;59.50;;;;;;5072474;28;20515;-88
2022/08/04 12:31:46;;;;;;;0.70;0.70;;;31.80;57.80;;;;;;5076353;28;20961;-88
2022/08/04 12:34:18;;;;;;;1.30;1.23;;;31.90;55.90;;;;;;5063995;28;20470;-89
2022/08/04 12:36:54;;;;;;;0.70;0.70;;;32.10;56.00;;;;;;5074029;28;20470;-89
2022/08/04 12:39:25;;;;;;;1.77;1.20;;;32.10;56.40;;;;;;5067066;28;20458;-88
2022/08/04 12:42:01;;;;;;;0.80;0.80;;;31.90;56.10;;;;;;5066477;28;20467;-89
2022/08/04 12:44:33;;;;;;;1.00;0.90;;;32.10;56.40;;;;;;5064724;28;21011;-90
2022/08/04 12:47:02;;;;;;;0.90;0.90;;;32.40;59.60;;;;;;5068865;28;22499;-89
2022/08/04 12:49:31;;;;;;;0.80;0.80;;;32.70;58.20;;;;;;5065038;28;20994;-89
2022/08/04 12:51:59;;;;;;;0.90;0.80;;;32.80;59.00;;;;;;5060490;28;20487;-89
2022/08/04 12:54:31;;;;;;;1.10;1.00;;;33.00;56.30;;;;;;5061569;28;20466;-89
2022/08/04 12:56:59;;;;;;;1.57;1.37;;;33.10;57.00;;;;;;5066461;28;20475;-90
2022/08/04 12:59:27;;;;;;;1.07;1.07;;;32.90;56.00;;;;;;5079288;28;20478;-89
2022/08/04 13:01:56;;;;;;;0.93;0.90;;;32.50;53.60;;;;;;5092511;28;20463;-90
2022/08/04 13:04:25;;;;;;;1.03;1.03;;;32.60;58.00;;;;;;5070240;28;20474;-89
2022/08/04 13:06:57;;;;;;;0.83;0.83;;;32.40;56.60;;;;;;5068260;28;20914;-89
2022/08/04 13:09:29;;;;;;;0.93;0.83;;;32.60;57.60;;;;;;5067789;28;20624;-89
2022/08/04 13:12:00;;;;;;;1.10;1.00;;;32.10;54.80;;;;;;5071305;28;20537;-89
2022/08/04 13:14:31;;;;;;;1.93;1.00;;;32.40;58.20;;;;;;5070025;28;20560;-89
2022/08/04 13:17:00;;;;;;;0.90;0.90;;;31.90;55.40;;;;;;5073734;28;20462;-89
2022/08/04 13:19:28;;;;;;;1.17;1.07;;;32.20;55.60;;;;;;5069078;28;20554;-89
2022/08/04 13:21:56;;;;;;;1.20;1.10;;;32.40;54.60;;;;;;5068882;28;20467;-89
2022/08/04 13:24:25;;;;;;;0.83;0.83;;;32.40;56.30;;;;;;5073440;27;20495;-89
2022/08/04 13:26:58;;;;;;;0.83;0.80;;;32.50;54.10;;;;;;5113225;27;20468;-89
2022/08/04 13:29:31;;;;;;;1.00;0.90;;;32.50;52.80;;;;;;5107229;27;20543;-89
2022/08/04 13:31:59;;;;;;;1.00;0.90;;;32.60;55.60;;;;;;5105782;27;21484;-89
2022/08/04 13:34:28;;;;;;;0.70;0.70;;;33.00;56.20;;;;;;5108735;27;20462;-87
2022/08/04 13:36:56;;;;;;;1.83;0.90;;;33.10;53.70;;;;;;5111189;27;20530;-87